タシュケント の空港の天気 - METARとTAF

タシケント空港 ( UTTT / TAS ) - ウズベキスタン タシュケント
飛行場実況気象(Metar)
観測時間01/18 14:30 UZT (01/18 09:30 UTC)
風向・風速北東 1m/s
視程7000m
天気現象
なし
気温7℃
湿度49%
気圧1022hPa
METARUTTT 180930Z 05002KT 7000 NSC 07/M03 Q1022 R08R/CLRD70 NOSIG
過去の天気等 Google飛行場航空写真 Wunderground天気予報

過去48時間のMETAR

飛行場予報(TAF)
発表時間: 1/18 10:00 UZT (1/18 05:00 UTC)
予報対象時間: 18日11時 UZT ~ 19日11時 UZT
風向・風速不定 1m/s
視程5,000m
天気現象もや
少しの雲 雲底高度 610m
全天の4割程度の雲 雲底高度 3,050m
18日17時 UZT ~ 18日20時 UZT に一時的に
風向・風速北 4m/s
視程2,000m
天気現象もや
18日20時 UZT ~ 19日8時 UZT に一時的に
視程500m
天気現象氷霧
全天を覆う雲 鉛直視程 60m
TAF UTTT 180500Z 1806/1906 VRB02KT 5000 BR FEW020 SCT100
TEMPO 1812/1815 35008KT 2000 BR
TEMPO 1815/1903 0500 FZFG VV002